createdAt,value
2023-03-22T00:00:32.191Z,41.40
2023-03-22T00:02:58.745Z,40.70
2023-03-22T00:05:25.265Z,41.40
2023-03-22T00:07:51.773Z,41.00
2023-03-22T00:10:18.286Z,40.90
2023-03-22T00:12:44.756Z,41.50
2023-03-22T00:15:11.263Z,41.50
2023-03-22T00:17:37.727Z,40.80
2023-03-22T00:20:04.225Z,41.10
2023-03-22T00:22:30.690Z,41.40
2023-03-22T00:24:57.166Z,40.90
2023-03-22T00:27:23.673Z,40.90
2023-03-22T00:29:50.149Z,41.30
2023-03-22T00:32:16.660Z,41.30
2023-03-22T00:37:10.202Z,40.90
2023-03-22T00:39:36.677Z,41.20
2023-03-22T00:42:03.223Z,41.30
2023-03-22T00:44:29.706Z,41.20
2023-03-22T00:46:56.232Z,40.70
2023-03-22T00:49:22.718Z,41.00
2023-03-22T00:51:49.208Z,40.70
2023-03-22T00:54:15.660Z,40.60
2023-03-22T00:56:42.164Z,40.70
2023-03-22T00:59:08.650Z,41.20
2023-03-22T01:01:35.157Z,41.20
2023-03-22T01:04:01.641Z,41.20
2023-03-22T01:06:28.194Z,41.20
2023-03-22T01:08:54.707Z,41.20
2023-03-22T01:11:21.218Z,41.10
2023-03-22T01:13:47.682Z,41.20
2023-03-22T01:16:14.193Z,40.70
2023-03-22T01:18:40.788Z,40.70
2023-03-22T01:21:07.399Z,40.70
2023-03-22T01:23:33.922Z,41.10
2023-03-22T01:26:00.440Z,40.70
2023-03-22T01:28:27.388Z,40.60
2023-03-22T01:30:54.070Z,41.10
2023-03-22T01:33:20.574Z,40.60
2023-03-22T01:35:47.089Z,40.60
2023-03-22T01:38:13.580Z,40.80
2023-03-22T01:40:40.257Z,41.00
2023-03-22T01:43:06.887Z,41.00
2023-03-22T01:45:33.401Z,41.00
2023-03-22T01:47:59.895Z,41.00
2023-03-22T01:50:26.451Z,40.50
2023-03-22T01:52:52.972Z,41.10
2023-03-22T01:55:19.475Z,41.00
2023-03-22T01:57:45.984Z,40.50
2023-03-22T02:00:12.496Z,40.40
2023-03-22T02:02:39.097Z,41.00
2023-03-22T02:05:05.610Z,40.40
2023-03-22T02:07:32.148Z,40.40
2023-03-22T02:09:58.655Z,40.60
2023-03-22T02:12:25.179Z,40.90
2023-03-22T02:14:51.697Z,40.70
2023-03-22T02:17:18.311Z,40.40
2023-03-22T02:19:44.846Z,40.90
2023-03-22T02:22:11.353Z,40.90
2023-03-22T02:24:37.858Z,40.50
2023-03-22T02:27:04.362Z,40.90
2023-03-22T02:29:30.855Z,40.30
2023-03-22T02:34:24.392Z,40.30
2023-03-22T02:36:50.863Z,40.90
2023-03-22T02:39:17.386Z,40.80
2023-03-22T02:41:43.868Z,40.50
2023-03-22T02:44:10.372Z,40.80
2023-03-22T02:46:36.942Z,40.80
2023-03-22T02:49:03.446Z,40.50
2023-03-22T02:51:29.930Z,40.40
2023-03-22T02:53:56.399Z,40.90
2023-03-22T02:56:22.865Z,40.40
2023-03-22T02:58:49.321Z,40.90
2023-03-22T03:01:15.904Z,40.40
2023-03-22T03:03:42.418Z,40.80
2023-03-22T03:06:08.895Z,40.30
2023-03-22T03:08:35.394Z,40.90
2023-03-22T03:11:01.895Z,40.80
2023-03-22T03:13:28.430Z,40.80
2023-03-22T03:15:54.960Z,40.70
2023-03-22T03:18:21.572Z,40.80
2023-03-22T03:20:48.077Z,40.10
2023-03-22T03:23:14.569Z,40.70
2023-03-22T03:25:41.033Z,40.20
2023-03-22T03:28:07.496Z,40.10
2023-03-22T03:30:33.956Z,40.10
2023-03-22T03:33:00.431Z,40.60
2023-03-22T03:35:26.976Z,40.50
2023-03-22T03:37:53.494Z,40.50
2023-03-22T03:40:20.015Z,40.00
2023-03-22T03:42:46.489Z,40.20
2023-03-22T03:45:13.009Z,39.80
2023-03-22T03:47:39.513Z,39.90
2023-03-22T03:50:06.022Z,39.80
2023-03-22T03:52:32.497Z,40.60
2023-03-22T03:54:58.986Z,40.70
2023-03-22T03:57:25.478Z,40.10
2023-03-22T03:59:52.000Z,40.40
2023-03-22T04:02:18.548Z,40.30
2023-03-22T04:04:45.100Z,39.80
2023-03-22T04:07:11.608Z,40.30
2023-03-22T04:09:38.094Z,39.80
2023-03-22T04:12:04.613Z,39.80
2023-03-22T04:14:31.119Z,39.60
2023-03-22T04:16:57.665Z,40.20
2023-03-22T04:19:24.164Z,40.20
2023-03-22T04:21:50.665Z,40.30
2023-03-22T04:24:17.154Z,40.10
2023-03-22T04:26:43.651Z,39.70
2023-03-22T04:29:10.188Z,40.10
2023-03-22T04:31:36.659Z,39.50
2023-03-22T04:34:03.153Z,39.40
2023-03-22T04:36:29.636Z,39.60
2023-03-22T04:38:56.129Z,40.00
2023-03-22T04:41:22.647Z,40.00
2023-03-22T04:43:49.114Z,39.30
2023-03-22T04:46:15.594Z,38.70
2023-03-22T04:48:42.093Z,39.30
2023-03-22T04:51:08.556Z,39.90
2023-03-22T04:53:35.056Z,39.90
2023-03-22T04:56:01.572Z,39.90
2023-03-22T04:58:28.066Z,39.40
2023-03-22T05:00:54.594Z,39.80
2023-03-22T05:03:21.085Z,39.30
2023-03-22T05:08:14.653Z,39.20
2023-03-22T05:10:41.659Z,39.70
2023-03-22T05:13:08.318Z,39.80
2023-03-22T05:15:34.835Z,39.90
2023-03-22T05:18:01.347Z,39.20
2023-03-22T05:20:27.868Z,39.30
2023-03-22T05:22:54.348Z,39.40
2023-03-22T05:25:20.847Z,39.80
2023-03-22T05:27:47.346Z,40.00
2023-03-22T05:30:13.838Z,39.40
2023-03-22T05:32:40.306Z,40.00
2023-03-22T05:35:06.776Z,40.00
2023-03-22T05:37:33.259Z,39.40
2023-03-22T05:39:59.763Z,39.80
2023-03-22T05:42:26.212Z,39.10
2023-03-22T05:44:52.689Z,39.50
2023-03-22T05:47:19.152Z,40.00
2023-03-22T05:49:45.672Z,40.20
2023-03-22T05:52:12.183Z,40.30
2023-03-22T05:54:38.684Z,40.30
2023-03-22T05:57:05.227Z,43.40
2023-03-22T05:59:31.699Z,41.10
2023-03-22T06:01:58.322Z,40.40
2023-03-22T06:04:24.816Z,41.10
2023-03-22T06:06:51.338Z,40.30
2023-03-22T06:09:18.184Z,40.40
2023-03-22T06:11:44.734Z,40.90
2023-03-22T06:14:11.246Z,40.70
2023-03-22T06:16:37.799Z,40.00
2023-03-22T06:19:04.329Z,40.20
2023-03-22T06:21:30.843Z,40.30
2023-03-22T06:23:57.352Z,40.80
2023-03-22T06:26:23.856Z,40.60
2023-03-22T06:28:50.397Z,40.30
2023-03-22T06:31:16.978Z,40.70
2023-03-22T06:33:43.581Z,40.80
2023-03-22T06:36:10.100Z,41.10
2023-03-22T06:38:36.594Z,40.50
2023-03-22T06:41:03.068Z,40.80
2023-03-22T06:43:29.587Z,41.00
2023-03-22T06:45:56.101Z,40.40
2023-03-22T06:48:22.760Z,40.70
2023-03-22T06:50:49.249Z,40.90
2023-03-22T06:53:15.712Z,40.90
2023-03-22T06:55:42.246Z,40.40
2023-03-22T06:58:08.721Z,40.30
2023-03-22T07:00:35.190Z,40.90
2023-03-22T07:03:01.635Z,40.50
2023-03-22T07:05:28.180Z,41.10
2023-03-22T07:07:54.695Z,40.70
2023-03-22T07:10:21.367Z,41.40
2023-03-22T07:12:47.834Z,41.30
2023-03-22T07:15:14.329Z,41.60
2023-03-22T07:17:40.855Z,41.20
2023-03-22T07:20:07.438Z,41.80
2023-03-22T07:22:33.944Z,41.80
2023-03-22T07:25:01.873Z,41.80
2023-03-22T07:27:28.558Z,41.90
2023-03-22T07:29:55.044Z,41.40
2023-03-22T07:32:21.623Z,41.30
2023-03-22T07:34:48.129Z,41.30
2023-03-22T07:37:14.617Z,42.10
2023-03-22T07:39:41.076Z,42.20
2023-03-22T07:42:07.574Z,41.60
2023-03-22T07:44:34.079Z,42.10
2023-03-22T07:47:00.604Z,40.90
2023-03-22T07:49:27.157Z,41.30
2023-03-22T07:51:53.616Z,41.60
2023-03-22T07:54:32.424Z,42.10
2023-03-22T07:56:59.311Z,42.00
2023-03-22T07:59:25.822Z,41.90
2023-03-22T08:01:52.448Z,42.00
2023-03-22T08:04:19.021Z,41.90
2023-03-22T08:06:45.622Z,41.60
2023-03-22T08:09:12.094Z,42.00
2023-03-22T08:11:38.524Z,41.40
2023-03-22T08:14:05.021Z,41.40
2023-03-22T08:16:31.579Z,41.90
2023-03-22T08:18:58.097Z,41.30
2023-03-22T08:21:24.563Z,41.90
2023-03-22T08:23:51.032Z,41.30
2023-03-22T08:26:17.496Z,41.50
2023-03-22T08:28:44.018Z,41.30
2023-03-22T08:31:10.506Z,41.90
2023-03-22T08:33:37.009Z,41.30
2023-03-22T08:36:03.479Z,41.80
2023-03-22T08:38:29.988Z,41.20
2023-03-22T08:40:56.462Z,41.80
2023-03-22T08:43:22.998Z,41.70
2023-03-22T08:45:49.500Z,41.80
2023-03-22T08:48:16.089Z,41.00
2023-03-22T08:50:42.634Z,41.80
2023-03-22T08:53:09.091Z,41.70
2023-03-22T08:55:35.606Z,41.80
2023-03-22T08:58:02.075Z,41.10
2023-03-22T09:00:36.494Z,41.70
2023-03-22T09:03:12.321Z,40.90
2023-03-22T09:05:39.042Z,41.00
2023-03-22T09:08:06.554Z,41.60
2023-03-22T09:10:33.285Z,41.00
2023-03-22T09:12:59.718Z,41.60
2023-03-22T09:15:26.215Z,41.60
2023-03-22T09:17:52.723Z,41.10
2023-03-22T09:20:19.248Z,41.60
2023-03-22T09:22:45.739Z,41.00
2023-03-22T09:25:12.986Z,40.80
2023-03-22T09:27:39.791Z,41.60
2023-03-22T09:30:06.295Z,41.60
2023-03-22T09:32:33.202Z,41.60
2023-03-22T09:34:59.662Z,41.10
2023-03-22T09:37:26.133Z,41.60
2023-03-22T09:39:52.658Z,41.50
2023-03-22T09:42:19.156Z,41.50
2023-03-22T09:44:45.660Z,41.50
2023-03-22T09:47:12.104Z,40.90
2023-03-22T09:49:50.720Z,41.40
2023-03-22T09:52:19.769Z,41.40
2023-03-22T09:54:46.286Z,41.10
2023-03-22T09:57:12.769Z,41.40
2023-03-22T09:59:39.222Z,40.80
2023-03-22T10:02:05.869Z,41.30
2023-03-22T10:04:32.610Z,41.40
2023-03-22T10:06:59.176Z,40.80
2023-03-22T10:09:25.685Z,40.70
2023-03-22T10:11:52.223Z,40.90
2023-03-22T10:14:18.728Z,41.20
2023-03-22T10:16:45.190Z,40.30
2023-03-22T10:19:11.682Z,41.10
2023-03-22T10:21:38.220Z,40.60
2023-03-22T10:24:04.742Z,40.50
2023-03-22T10:26:31.231Z,40.50
2023-03-22T10:28:57.701Z,41.10
2023-03-22T10:31:24.213Z,41.10
2023-03-22T10:33:50.660Z,41.10
2023-03-22T10:36:17.311Z,40.90
2023-03-22T10:38:43.750Z,40.50
2023-03-22T10:41:10.191Z,40.40
2023-03-22T10:43:36.738Z,41.00
2023-03-22T10:46:03.252Z,41.00
2023-03-22T10:48:29.892Z,41.00
2023-03-22T10:50:56.436Z,40.90
2023-03-22T10:53:22.912Z,40.60
2023-03-22T10:55:49.409Z,40.30
2023-03-22T10:58:15.928Z,40.60
2023-03-22T11:00:42.595Z,41.00
2023-03-22T11:03:09.316Z,41.00
2023-03-22T11:05:35.855Z,40.40
2023-03-22T11:08:02.315Z,41.00
2023-03-22T11:10:28.824Z,41.00
2023-03-22T11:12:55.333Z,40.60
2023-03-22T11:15:21.802Z,40.60
2023-03-22T11:17:48.280Z,41.20
2023-03-22T11:20:14.797Z,40.50
2023-03-22T11:22:41.338Z,40.60
2023-03-22T11:25:07.820Z,40.60
2023-03-22T11:27:34.395Z,41.20
2023-03-22T11:30:00.864Z,41.20
2023-03-22T11:32:27.433Z,41.20
2023-03-22T11:34:53.982Z,41.20
2023-03-22T11:37:20.502Z,40.70
2023-03-22T11:39:46.974Z,40.50
2023-03-22T11:42:13.446Z,41.30
2023-03-22T11:44:39.965Z,40.70
2023-03-22T11:47:06.505Z,40.70
2023-03-22T11:49:33.019Z,41.30
2023-03-22T11:51:59.482Z,41.20
2023-03-22T11:54:26.007Z,40.80
2023-03-22T11:56:52.512Z,40.50
2023-03-22T11:59:19.032Z,41.20
2023-03-22T12:01:45.492Z,41.20
2023-03-22T12:04:12.058Z,40.80
2023-03-22T12:06:38.593Z,41.20
2023-03-22T12:09:05.135Z,41.20
2023-03-22T12:11:31.599Z,41.20
2023-03-22T12:13:58.078Z,40.90
2023-03-22T12:16:25.172Z,41.30
2023-03-22T12:18:51.862Z,40.90
2023-03-22T12:23:45.400Z,40.50
2023-03-22T12:26:11.904Z,40.60
2023-03-22T12:28:38.363Z,40.40
2023-03-22T12:31:04.922Z,41.10
2023-03-22T12:33:31.506Z,41.20
2023-03-22T12:35:58.041Z,40.50
2023-03-22T12:38:24.524Z,40.60
2023-03-22T12:40:51.009Z,40.60
2023-03-22T12:43:17.489Z,40.60
2023-03-22T12:45:43.950Z,40.60
2023-03-22T12:48:10.704Z,40.30
2023-03-22T12:50:37.277Z,40.60
2023-03-22T12:53:03.757Z,40.20
2023-03-22T12:55:30.221Z,41.10
2023-03-22T12:57:56.746Z,41.10
2023-03-22T13:00:23.288Z,40.50
2023-03-22T13:02:49.884Z,40.60
2023-03-22T13:05:16.422Z,41.10
2023-03-22T13:07:42.931Z,40.50
2023-03-22T13:10:09.452Z,41.10
2023-03-22T13:12:35.910Z,41.10
2023-03-22T13:15:02.547Z,41.10
2023-03-22T13:17:29.155Z,41.10
2023-03-22T13:19:55.668Z,41.10
2023-03-22T13:22:22.156Z,40.50
2023-03-22T13:24:48.696Z,41.10
2023-03-22T13:27:15.202Z,41.10
2023-03-22T13:29:41.669Z,40.60
2023-03-22T13:32:08.205Z,40.60
2023-03-22T13:34:34.716Z,40.60
2023-03-22T13:37:01.179Z,41.10
2023-03-22T13:39:27.680Z,40.50
2023-03-22T13:41:54.144Z,41.20
2023-03-22T13:44:20.648Z,41.10
2023-03-22T13:46:47.178Z,40.60
2023-03-22T13:49:13.775Z,40.60
2023-03-22T13:51:40.324Z,41.10
2023-03-22T13:54:06.824Z,41.00
2023-03-22T13:56:33.332Z,41.10
2023-03-22T13:58:59.860Z,41.30
2023-03-22T14:01:26.394Z,40.70
2023-03-22T14:03:53.065Z,41.20
2023-03-22T14:06:19.612Z,41.00
2023-03-22T14:08:46.124Z,41.20
2023-03-22T14:11:12.862Z,40.60
2023-03-22T14:13:39.408Z,40.60
2023-03-22T14:18:32.972Z,40.60
2023-03-22T14:20:59.458Z,40.70
